createdAt,value
2022-10-13T00:00:33.674Z,0.00
2022-10-13T00:05:33.599Z,0.00
2022-10-13T00:10:33.538Z,0.00
2022-10-13T00:15:33.466Z,0.00
2022-10-13T00:20:33.406Z,0.00
2022-10-13T00:25:33.333Z,0.00
2022-10-13T00:30:33.276Z,0.00
2022-10-13T00:35:33.200Z,0.00
2022-10-13T00:40:33.140Z,0.00
2022-10-13T00:45:33.066Z,0.00
2022-10-13T00:50:33.007Z,0.00
2022-10-13T00:55:32.934Z,0.00
2022-10-13T01:00:32.950Z,0.00
2022-10-13T01:05:32.800Z,0.00
2022-10-13T01:10:32.739Z,0.00
2022-10-13T01:15:32.668Z,0.00
2022-10-13T01:20:32.606Z,0.00
2022-10-13T01:25:32.532Z,0.00
2022-10-13T01:30:32.475Z,0.00
2022-10-13T01:35:32.400Z,0.00
2022-10-13T01:40:32.339Z,0.00
2022-10-13T01:45:32.264Z,0.00
2022-10-13T01:50:32.207Z,0.00
2022-10-13T01:55:32.141Z,0.00
2022-10-13T02:00:32.132Z,0.00
2022-10-13T02:05:31.999Z,0.00
2022-10-13T02:10:31.939Z,0.00
2022-10-13T02:15:31.864Z,0.00
2022-10-13T02:20:31.806Z,0.00
2022-10-13T02:25:31.731Z,0.00
2022-10-13T02:30:31.671Z,0.00
2022-10-13T02:35:31.596Z,0.00
2022-10-13T02:40:31.540Z,0.00
2022-10-13T02:45:31.462Z,0.00
2022-10-13T02:50:31.405Z,0.00
2022-10-13T02:55:31.330Z,0.00
2022-10-13T03:00:31.310Z,0.00
2022-10-13T03:05:31.195Z,0.00
2022-10-13T03:10:31.137Z,0.00
2022-10-13T03:15:31.062Z,0.00
2022-10-13T03:20:31.009Z,0.00
2022-10-13T03:25:30.930Z,0.00
2022-10-13T03:30:30.864Z,0.00
2022-10-13T03:35:30.806Z,0.00
2022-10-13T03:40:30.728Z,0.00
2022-10-13T03:45:30.672Z,0.00
2022-10-13T03:50:30.598Z,0.00
2022-10-13T03:55:30.540Z,0.00
2022-10-13T04:00:30.464Z,0.00
2022-10-13T04:05:30.406Z,0.00
2022-10-13T04:10:30.330Z,0.00
2022-10-13T04:15:30.271Z,0.00
2022-10-13T04:20:30.226Z,0.00
2022-10-13T04:25:30.140Z,0.00
2022-10-13T04:30:30.064Z,0.00
2022-10-13T04:35:30.003Z,0.00
2022-10-13T04:40:29.932Z,0.00
2022-10-13T04:45:29.869Z,0.00
2022-10-13T04:50:29.796Z,0.00
2022-10-13T04:55:29.739Z,0.00
2022-10-13T05:00:29.738Z,0.00
2022-10-13T05:05:29.602Z,0.00
2022-10-13T05:10:33.936Z,0.00
2022-10-13T05:15:29.471Z,0.00
2022-10-13T05:20:29.397Z,5.62
2022-10-13T05:25:33.678Z,16.87
2022-10-13T05:30:29.262Z,22.50
2022-10-13T05:35:29.202Z,28.12
2022-10-13T05:40:29.131Z,45.00
2022-10-13T05:45:29.069Z,67.50
2022-10-13T05:50:28.997Z,112.50
2022-10-13T05:55:28.936Z,174.37
2022-10-13T06:00:28.863Z,213.75
2022-10-13T06:05:28.803Z,298.12
2022-10-13T06:10:28.728Z,315.00
2022-10-13T06:15:28.673Z,292.50
2022-10-13T06:20:28.599Z,151.87
2022-10-13T06:25:28.538Z,196.87
2022-10-13T06:30:28.468Z,258.75
2022-10-13T06:35:28.402Z,281.25
2022-10-13T06:40:28.334Z,236.25
2022-10-13T06:45:28.273Z,236.25
2022-10-13T06:50:28.201Z,275.62
2022-10-13T06:55:28.140Z,270.00
2022-10-13T07:00:28.099Z,343.12
2022-10-13T07:05:28.022Z,376.87
2022-10-13T07:10:27.944Z,343.12
2022-10-13T07:15:27.875Z,534.37
2022-10-13T07:20:27.802Z,708.75
2022-10-13T07:25:27.745Z,596.25
2022-10-13T07:30:27.666Z,540.00
2022-10-13T07:35:30.690Z,534.37
2022-10-13T07:40:27.532Z,455.62
2022-10-13T07:45:27.474Z,348.75
2022-10-13T07:50:27.404Z,534.37
2022-10-13T07:55:27.341Z,843.75
2022-10-13T08:00:27.267Z,1271.25
2022-10-13T08:05:27.210Z,1108.12
2022-10-13T08:10:27.134Z,1125.00
2022-10-13T08:15:27.078Z,1012.50
2022-10-13T08:20:36.187Z,1192.50
2022-10-13T08:25:27.975Z,1254.37
2022-10-13T08:30:26.974Z,1181.25
2022-10-13T08:35:28.430Z,911.25
2022-10-13T08:40:26.737Z,753.75
2022-10-13T08:45:40.969Z,708.75
2022-10-13T08:50:27.626Z,753.75
2022-10-13T08:55:26.545Z,1113.75
2022-10-13T09:00:26.462Z,1845.00
2022-10-13T09:05:26.399Z,1794.37
2022-10-13T09:10:26.327Z,1861.87
2022-10-13T09:15:26.268Z,1215.00
2022-10-13T09:20:26.193Z,1023.75
2022-10-13T09:25:26.134Z,1276.87
2022-10-13T09:30:26.060Z,922.50
2022-10-13T09:35:25.999Z,916.87
2022-10-13T09:40:25.928Z,821.25
2022-10-13T09:45:25.867Z,821.25
2022-10-13T09:50:25.793Z,1018.12
2022-10-13T09:55:29.921Z,821.25
2022-10-13T10:00:25.661Z,781.87
2022-10-13T10:05:25.602Z,759.37
2022-10-13T10:10:25.536Z,900.00
2022-10-13T10:15:25.470Z,1051.87
2022-10-13T10:20:25.395Z,1102.50
2022-10-13T10:25:25.340Z,1501.87
2022-10-13T10:30:25.263Z,1136.25
2022-10-13T10:35:25.203Z,1192.50
2022-10-13T10:40:25.132Z,1186.87
2022-10-13T10:45:25.071Z,1805.62
2022-10-13T10:50:24.994Z,1513.12
2022-10-13T10:55:24.934Z,2199.37
2022-10-13T11:00:25.016Z,1878.75
2022-10-13T11:05:24.801Z,1670.62
2022-10-13T11:10:24.727Z,2553.75
2022-10-13T11:15:24.668Z,1046.25
2022-10-13T11:20:24.598Z,1569.37
2022-10-13T11:25:24.532Z,1209.37
2022-10-13T11:30:24.611Z,556.87
2022-10-13T11:35:24.398Z,517.50
2022-10-13T11:40:24.327Z,776.25
2022-10-13T11:45:24.270Z,1260.00
2022-10-13T11:50:24.189Z,1355.62
2022-10-13T11:55:24.129Z,956.25
2022-10-13T12:00:24.056Z,905.62
2022-10-13T12:05:23.996Z,883.12
2022-10-13T12:10:23.921Z,916.87
2022-10-13T12:15:23.860Z,956.25
2022-10-13T12:20:23.786Z,590.62
2022-10-13T12:25:23.725Z,528.75
2022-10-13T12:30:23.656Z,489.37
2022-10-13T12:35:23.590Z,438.75
2022-10-13T12:40:23.537Z,450.00
2022-10-13T12:45:23.458Z,405.00
2022-10-13T12:50:23.384Z,365.62
2022-10-13T12:55:23.323Z,483.75
2022-10-13T13:00:23.246Z,421.87
2022-10-13T13:05:23.186Z,399.37
2022-10-13T13:10:23.113Z,388.12
2022-10-13T13:15:23.052Z,371.25
2022-10-13T13:20:22.980Z,393.75
2022-10-13T13:25:22.924Z,371.25
2022-10-13T13:30:22.844Z,348.75
2022-10-13T13:35:22.782Z,371.25
2022-10-13T13:40:22.706Z,343.12
2022-10-13T13:45:22.651Z,326.25
2022-10-13T13:50:22.575Z,315.00
2022-10-13T13:55:22.515Z,298.12
2022-10-13T14:00:22.441Z,292.50
2022-10-13T14:05:22.381Z,331.87
2022-10-13T14:10:22.309Z,388.12
2022-10-13T14:15:25.819Z,343.12
2022-10-13T14:20:22.174Z,309.37
2022-10-13T14:25:22.117Z,320.62
2022-10-13T14:30:22.041Z,303.75
2022-10-13T14:35:21.981Z,247.50
2022-10-13T14:40:22.059Z,202.50
2022-10-13T14:45:21.849Z,196.87
2022-10-13T14:50:21.776Z,191.25
2022-10-13T14:55:21.716Z,168.75
2022-10-13T15:00:21.660Z,168.75
2022-10-13T15:05:21.583Z,163.12
2022-10-13T15:10:21.506Z,157.50
2022-10-13T15:15:21.452Z,168.75
2022-10-13T15:20:21.377Z,180.00
2022-10-13T15:25:21.317Z,129.37
2022-10-13T15:30:21.242Z,61.87
2022-10-13T15:35:21.184Z,56.25
2022-10-13T15:40:21.110Z,56.25
2022-10-13T15:45:21.048Z,56.25
2022-10-13T15:50:20.977Z,50.62
2022-10-13T15:55:20.915Z,39.37
2022-10-13T16:00:20.842Z,22.50
2022-10-13T16:05:20.785Z,16.87
2022-10-13T16:10:20.707Z,5.62
2022-10-13T16:15:20.651Z,0.00
2022-10-13T16:20:20.575Z,0.00
2022-10-13T16:25:20.517Z,0.00
2022-10-13T16:30:20.445Z,0.00
2022-10-13T16:35:20.385Z,0.00
2022-10-13T16:40:20.313Z,0.00
2022-10-13T16:45:35.475Z,0.00
2022-10-13T16:50:21.208Z,0.00
2022-10-13T16:55:20.121Z,0.00
2022-10-13T17:00:20.158Z,0.00
2022-10-13T17:05:19.988Z,0.00
2022-10-13T17:10:19.915Z,0.00
2022-10-13T17:15:19.859Z,0.00
2022-10-13T17:20:19.780Z,0.00
2022-10-13T17:25:19.720Z,0.00
2022-10-13T17:30:19.647Z,0.00
2022-10-13T17:35:19.598Z,0.00
2022-10-13T17:40:19.747Z,0.00
2022-10-13T17:45:19.452Z,0.00
2022-10-13T17:50:19.380Z,0.00
2022-10-13T17:55:19.313Z,0.00
2022-10-13T18:00:19.248Z,0.00
2022-10-13T18:05:19.170Z,0.00
2022-10-13T18:10:19.109Z,0.00
2022-10-13T18:15:19.033Z,0.00
2022-10-13T18:20:18.974Z,0.00
2022-10-13T18:25:18.898Z,0.00
2022-10-13T18:30:22.348Z,0.00
2022-10-13T18:35:18.766Z,0.00
2022-10-13T18:40:18.711Z,0.00
2022-10-13T18:45:18.622Z,0.00
2022-10-13T18:50:18.565Z,0.00
2022-10-13T18:55:18.487Z,0.00
2022-10-13T19:00:18.424Z,0.00
2022-10-13T19:05:18.351Z,0.00
2022-10-13T19:10:18.289Z,0.00
2022-10-13T19:15:18.213Z,0.00
2022-10-13T19:20:18.152Z,0.00
2022-10-13T19:25:18.076Z,0.00
2022-10-13T19:30:18.017Z,0.00
2022-10-13T19:35:17.945Z,0.00
2022-10-13T19:40:17.887Z,0.00
2022-10-13T19:45:17.817Z,0.00
2022-10-13T19:50:17.756Z,0.00
2022-10-13T19:55:17.683Z,0.00
2022-10-13T20:00:17.627Z,0.00
2022-10-13T20:05:20.873Z,0.00
2022-10-13T20:10:17.495Z,0.00
2022-10-13T20:15:17.424Z,0.00
2022-10-13T20:20:22.134Z,0.00
2022-10-13T20:25:17.292Z,0.00
2022-10-13T20:30:17.240Z,0.00
2022-10-13T20:35:17.165Z,0.00
2022-10-13T20:40:17.105Z,0.00
2022-10-13T20:45:17.031Z,0.00
2022-10-13T20:50:16.980Z,0.00
2022-10-13T20:55:16.902Z,0.00
2022-10-13T21:00:16.871Z,0.00
2022-10-13T21:05:16.768Z,0.00
2022-10-13T21:10:16.713Z,0.00
2022-10-13T21:15:16.635Z,0.00
2022-10-13T21:20:16.577Z,0.00
2022-10-13T21:25:16.503Z,0.00
2022-10-13T21:30:16.444Z,0.00
2022-10-13T21:35:16.377Z,0.00
2022-10-13T21:40:16.312Z,0.00
2022-10-13T21:45:16.238Z,0.00
2022-10-13T21:50:16.177Z,0.00
2022-10-13T21:55:16.123Z,0.00
2022-10-13T22:00:16.046Z,0.00
2022-10-13T22:05:15.982Z,0.00
2022-10-13T22:10:15.912Z,0.00
2022-10-13T22:15:15.840Z,0.00
2022-10-13T22:20:15.778Z,0.00
2022-10-13T22:25:15.706Z,0.00
2022-10-13T22:30:15.645Z,0.00
2022-10-13T22:35:15.571Z,0.00
2022-10-13T22:40:15.511Z,0.00
2022-10-13T22:45:15.435Z,0.00
2022-10-13T22:50:15.373Z,0.00
2022-10-13T22:55:15.299Z,0.00
2022-10-13T23:00:15.241Z,0.00
2022-10-13T23:05:15.166Z,0.00
2022-10-13T23:10:15.106Z,0.00
2022-10-13T23:15:15.030Z,0.00
2022-10-13T23:20:14.970Z,0.00
2022-10-13T23:25:14.899Z,0.00
2022-10-13T23:30:14.838Z,0.00
2022-10-13T23:35:14.763Z,0.00
2022-10-13T23:40:14.702Z,0.00
2022-10-13T23:45:14.631Z,0.00
2022-10-13T23:50:14.573Z,0.00
2022-10-13T23:55:14.498Z,0.00
